sensor_id;sensor_type;location;lat;lon;timestamp;temperature;humidity
16732;DHT22;8484;50.904;9.192;2023-10-09T00:01:43;11.40;99.90
16732;DHT22;8484;50.904;9.192;2023-10-09T00:04:12;11.40;99.90
16732;DHT22;8484;50.904;9.192;2023-10-09T00:06:39;11.40;99.90
16732;DHT22;8484;50.904;9.192;2023-10-09T00:09:08;11.30;99.90
16732;DHT22;8484;50.904;9.192;2023-10-09T00:11:55;11.20;99.90
16732;DHT22;8484;50.904;9.192;2023-10-09T00:14:24;11.20;99.90
16732;DHT22;8484;50.904;9.192;2023-10-09T00:16:51;11.10;99.90
16732;DHT22;8484;50.904;9.192;2023-10-09T00:19:31;11.00;99.90
16732;DHT22;8484;50.904;9.192;2023-10-09T00:21:59;11.00;99.90
16732;DHT22;8484;50.904;9.192;2023-10-09T00:24:32;11.00;99.90
16732;DHT22;8484;50.904;9.192;2023-10-09T00:26:59;11.00;99.90
16732;DHT22;8484;50.904;9.192;2023-10-09T00:29:39;11.00;99.90
16732;DHT22;8484;50.904;9.192;2023-10-09T00:32:10;10.90;99.90
16732;DHT22;8484;50.904;9.192;2023-10-09T00:34:41;10.80;99.90
16732;DHT22;8484;50.904;9.192;2023-10-09T00:37:08;10.80;99.90
16732;DHT22;8484;50.904;9.192;2023-10-09T00:39:42;10.80;99.90
16732;DHT22;8484;50.904;9.192;2023-10-09T00:42:10;10.80;99.90
16732;DHT22;8484;50.904;9.192;2023-10-09T00:44:41;10.90;99.90
16732;DHT22;8484;50.904;9.192;2023-10-09T00:47:10;10.90;99.90
16732;DHT22;8484;50.904;9.192;2023-10-09T00:49:49;10.90;99.90
16732;DHT22;8484;50.904;9.192;2023-10-09T00:52:20;11.00;99.90
16732;DHT22;8484;50.904;9.192;2023-10-09T00:55:03;11.00;99.90
16732;DHT22;8484;50.904;9.192;2023-10-09T00:57:39;10.80;99.90
16732;DHT22;8484;50.904;9.192;2023-10-09T01:00:10;10.60;99.90
16732;DHT22;8484;50.904;9.192;2023-10-09T01:02:58;10.40;99.90
16732;DHT22;8484;50.904;9.192;2023-10-09T01:05:44;10.50;99.90
16732;DHT22;8484;50.904;9.192;2023-10-09T01:08:17;10.40;99.90
16732;DHT22;8484;50.904;9.192;2023-10-09T01:10:51;10.30;99.90
16732;DHT22;8484;50.904;9.192;2023-10-09T01:13:23;10.40;99.90
16732;DHT22;8484;50.904;9.192;2023-10-09T01:15:55;10.30;99.90
16732;DHT22;8484;50.904;9.192;2023-10-09T01:18:25;10.30;99.90
16732;DHT22;8484;50.904;9.192;2023-10-09T01:21:02;10.30;99.90
16732;DHT22;8484;50.904;9.192;2023-10-09T01:23:31;10.30;99.90
16732;DHT22;8484;50.904;9.192;2023-10-09T01:25:58;10.30;99.90
16732;DHT22;8484;50.904;9.192;2023-10-09T01:28:25;10.00;99.90
16732;DHT22;8484;50.904;9.192;2023-10-09T01:30:54;9.90;99.90
16732;DHT22;8484;50.904;9.192;2023-10-09T01:33:21;9.70;99.90
16732;DHT22;8484;50.904;9.192;2023-10-09T01:35:50;9.70;99.90
16732;DHT22;8484;50.904;9.192;2023-10-09T01:38:21;9.80;99.90
16732;DHT22;8484;50.904;9.192;2023-10-09T01:41:07;9.80;99.90
16732;DHT22;8484;50.904;9.192;2023-10-09T01:43:41;9.80;99.90
16732;DHT22;8484;50.904;9.192;2023-10-09T01:46:10;9.90;99.90
16732;DHT22;8484;50.904;9.192;2023-10-09T01:48:37;9.90;99.90
16732;DHT22;8484;50.904;9.192;2023-10-09T01:51:06;9.90;99.90
16732;DHT22;8484;50.904;9.192;2023-10-09T01:53:39;10.10;99.90
16732;DHT22;8484;50.904;9.192;2023-10-09T01:56:12;10.20;99.90
16732;DHT22;8484;50.904;9.192;2023-10-09T01:58:42;10.20;99.90
16732;DHT22;8484;50.904;9.192;2023-10-09T02:01:12;10.20;99.90
16732;DHT22;8484;50.904;9.192;2023-10-09T02:03:41;10.40;99.90
16732;DHT22;8484;50.904;9.192;2023-10-09T02:06:10;10.40;99.90
16732;DHT22;8484;50.904;9.192;2023-10-09T02:08:53;10.60;99.90
16732;DHT22;8484;50.904;9.192;2023-10-09T02:11:23;10.40;99.90
16732;DHT22;8484;50.904;9.192;2023-10-09T02:14:04;10.40;99.90
16732;DHT22;8484;50.904;9.192;2023-10-09T02:16:45;10.30;99.90
16732;DHT22;8484;50.904;9.192;2023-10-09T02:19:28;10.40;99.90
16732;DHT22;8484;50.904;9.192;2023-10-09T02:22:00;10.50;99.90
16732;DHT22;8484;50.904;9.192;2023-10-09T02:24:37;10.60;99.90
16732;DHT22;8484;50.904;9.192;2023-10-09T02:27:24;10.60;99.90
16732;DHT22;8484;50.904;9.192;2023-10-09T02:30:18;10.60;99.90
16732;DHT22;8484;50.904;9.192;2023-10-09T02:32:53;10.70;99.90
16732;DHT22;8484;50.904;9.192;2023-10-09T02:35:25;10.70;99.90
16732;DHT22;8484;50.904;9.192;2023-10-09T02:37:57;10.70;99.90
16732;DHT22;8484;50.904;9.192;2023-10-09T02:40:27;10.60;99.90
16732;DHT22;8484;50.904;9.192;2023-10-09T02:42:59;10.60;99.90
16732;DHT22;8484;50.904;9.192;2023-10-09T02:45:26;10.60;99.90
16732;DHT22;8484;50.904;9.192;2023-10-09T02:47:58;10.80;99.90
16732;DHT22;8484;50.904;9.192;2023-10-09T02:50:25;10.70;99.90
16732;DHT22;8484;50.904;9.192;2023-10-09T02:52:54;10.60;99.90
16732;DHT22;8484;50.904;9.192;2023-10-09T02:55:25;10.60;99.90
16732;DHT22;8484;50.904;9.192;2023-10-09T02:57:53;10.50;99.90
16732;DHT22;8484;50.904;9.192;2023-10-09T03:00:32;10.60;99.90
16732;DHT22;8484;50.904;9.192;2023-10-09T03:03:03;10.50;99.90
16732;DHT22;8484;50.904;9.192;2023-10-09T03:05:31;10.50;99.90
16732;DHT22;8484;50.904;9.192;2023-10-09T03:07:58;10.50;99.90
16732;DHT22;8484;50.904;9.192;2023-10-09T03:10:25;10.50;99.90
16732;DHT22;8484;50.904;9.192;2023-10-09T03:12:52;10.50;99.90
16732;DHT22;8484;50.904;9.192;2023-10-09T03:15:19;10.40;99.90
16732;DHT22;8484;50.904;9.192;2023-10-09T03:17:48;10.30;99.90
16732;DHT22;8484;50.904;9.192;2023-10-09T03:20:15;10.10;99.90
16732;DHT22;8484;50.904;9.192;2023-10-09T03:22:43;10.10;99.90
16732;DHT22;8484;50.904;9.192;2023-10-09T03:25:11;10.20;99.90
16732;DHT22;8484;50.904;9.192;2023-10-09T03:27:40;10.20;99.90
16732;DHT22;8484;50.904;9.192;2023-10-09T03:30:12;10.30;99.90
16732;DHT22;8484;50.904;9.192;2023-10-09T03:32:43;10.30;99.90
16732;DHT22;8484;50.904;9.192;2023-10-09T03:35:15;10.30;99.90
16732;DHT22;8484;50.904;9.192;2023-10-09T03:37:50;10.30;99.90
16732;DHT22;8484;50.904;9.192;2023-10-09T03:40:19;10.40;99.90
16732;DHT22;8484;50.904;9.192;2023-10-09T03:42:47;10.40;99.90
16732;DHT22;8484;50.904;9.192;2023-10-09T03:45:14;10.40;99.90
16732;DHT22;8484;50.904;9.192;2023-10-09T03:47:54;10.50;99.90
16732;DHT22;8484;50.904;9.192;2023-10-09T03:50:28;10.60;99.90
16732;DHT22;8484;50.904;9.192;2023-10-09T03:53:02;10.70;99.90
16732;DHT22;8484;50.904;9.192;2023-10-09T03:55:34;10.80;99.90
16732;DHT22;8484;50.904;9.192;2023-10-09T03:58:01;10.80;99.90
16732;DHT22;8484;50.904;9.192;2023-10-09T04:00:29;10.80;99.90
16732;DHT22;8484;50.904;9.192;2023-10-09T04:02:57;10.80;99.90
16732;DHT22;8484;50.904;9.192;2023-10-09T04:05:26;10.80;99.90
16732;DHT22;8484;50.904;9.192;2023-10-09T04:07:55;10.80;99.90
16732;DHT22;8484;50.904;9.192;2023-10-09T04:10:25;10.90;99.90
16732;DHT22;8484;50.904;9.192;2023-10-09T04:13:10;11.00;99.90
16732;DHT22;8484;50.904;9.192;2023-10-09T04:15:42;11.00;99.90
16732;DHT22;8484;50.904;9.192;2023-10-09T04:18:09;11.00;99.90
16732;DHT22;8484;50.904;9.192;2023-10-09T04:20:41;11.10;99.90
16732;DHT22;8484;50.904;9.192;2023-10-09T04:23:34;11.00;99.90
16732;DHT22;8484;50.904;9.192;2023-10-09T04:26:02;10.90;99.90
16732;DHT22;8484;50.904;9.192;2023-10-09T04:28:36;10.90;99.90
16732;DHT22;8484;50.904;9.192;2023-10-09T04:31:03;10.90;99.90
16732;DHT22;8484;50.904;9.192;2023-10-09T04:33:32;10.80;99.90
16732;DHT22;8484;50.904;9.192;2023-10-09T04:36:08;10.90;99.90
16732;DHT22;8484;50.904;9.192;2023-10-09T04:38:55;10.90;99.90
16732;DHT22;8484;50.904;9.192;2023-10-09T04:41:41;10.90;99.90
16732;DHT22;8484;50.904;9.192;2023-10-09T04:44:22;10.90;99.90
16732;DHT22;8484;50.904;9.192;2023-10-09T04:46:55;11.10;99.90
16732;DHT22;8484;50.904;9.192;2023-10-09T04:49:36;11.10;99.90
16732;DHT22;8484;50.904;9.192;2023-10-09T04:52:15;11.10;99.90
16732;DHT22;8484;50.904;9.192;2023-10-09T04:54:46;11.20;99.90
16732;DHT22;8484;50.904;9.192;2023-10-09T04:57:27;11.30;99.90
16732;DHT22;8484;50.904;9.192;2023-10-09T04:59:55;11.40;99.90
16732;DHT22;8484;50.904;9.192;2023-10-09T05:02:24;11.50;99.90
16732;DHT22;8484;50.904;9.192;2023-10-09T05:05:01;11.50;99.90
16732;DHT22;8484;50.904;9.192;2023-10-09T05:07:58;11.60;99.90
16732;DHT22;8484;50.904;9.192;2023-10-09T05:10:43;11.60;99.90
16732;DHT22;8484;50.904;9.192;2023-10-09T05:13:31;11.60;99.90
16732;DHT22;8484;50.904;9.192;2023-10-09T05:16:09;11.80;99.90
16732;DHT22;8484;50.904;9.192;2023-10-09T05:18:44;11.60;99.90
16732;DHT22;8484;50.904;9.192;2023-10-09T05:21:21;11.70;99.90
16732;DHT22;8484;50.904;9.192;2023-10-09T05:24:06;11.70;99.90
16732;DHT22;8484;50.904;9.192;2023-10-09T05:26:50;11.70;99.90
16732;DHT22;8484;50.904;9.192;2023-10-09T05:29:17;11.70;99.90
16732;DHT22;8484;50.904;9.192;2023-10-09T05:32:00;11.70;99.90
16732;DHT22;8484;50.904;9.192;2023-10-09T05:34:31;11.70;99.90
16732;DHT22;8484;50.904;9.192;2023-10-09T05:37:20;11.60;99.90
16732;DHT22;8484;50.904;9.192;2023-10-09T05:39:51;11.70;99.90
16732;DHT22;8484;50.904;9.192;2023-10-09T05:42:45;11.70;99.90
16732;DHT22;8484;50.904;9.192;2023-10-09T05:45:23;11.80;99.90
16732;DHT22;8484;50.904;9.192;2023-10-09T05:48:07;11.80;99.90
16732;DHT22;8484;50.904;9.192;2023-10-09T05:51:04;11.80;99.90
16732;DHT22;8484;50.904;9.192;2023-10-09T05:53:37;11.80;99.90
16732;DHT22;8484;50.904;9.192;2023-10-09T05:56:18;11.90;99.90
16732;DHT22;8484;50.904;9.192;2023-10-09T05:59:04;11.90;99.90
16732;DHT22;8484;50.904;9.192;2023-10-09T06:01:48;12.00;99.90
16732;DHT22;8484;50.904;9.192;2023-10-09T06:04:35;12.00;99.90
16732;DHT22;8484;50.904;9.192;2023-10-09T06:07:15;12.10;99.90
16732;DHT22;8484;50.904;9.192;2023-10-09T06:09:49;12.10;99.90
16732;DHT22;8484;50.904;9.192;2023-10-09T06:12:15;12.10;99.90
16732;DHT22;8484;50.904;9.192;2023-10-09T06:15:16;12.10;99.90
16732;DHT22;8484;50.904;9.192;2023-10-09T06:17:56;12.20;99.90
16732;DHT22;8484;50.904;9.192;2023-10-09T06:20:43;12.10;99.90
16732;DHT22;8484;50.904;9.192;2023-10-09T06:23:24;12.10;99.90
16732;DHT22;8484;50.904;9.192;2023-10-09T06:26:11;12.20;99.90
16732;DHT22;8484;50.904;9.192;2023-10-09T06:28:50;12.20;99.90
16732;DHT22;8484;50.904;9.192;2023-10-09T06:31:38;12.20;99.90
16732;DHT22;8484;50.904;9.192;2023-10-09T06:34:22;12.20;99.90
16732;DHT22;8484;50.904;9.192;2023-10-09T06:36:58;12.30;99.90
16732;DHT22;8484;50.904;9.192;2023-10-09T06:39:31;12.40;99.90
16732;DHT22;8484;50.904;9.192;2023-10-09T06:42:15;12.50;99.90
16732;DHT22;8484;50.904;9.192;2023-10-09T06:45:15;12.60;99.90
16732;DHT22;8484;50.904;9.192;2023-10-09T06:47:58;12.60;99.90
16732;DHT22;8484;50.904;9.192;2023-10-09T06:50:35;12.70;99.90
16732;DHT22;8484;50.904;9.192;2023-10-09T06:53:16;12.70;99.90
16732;DHT22;8484;50.904;9.192;2023-10-09T06:55:46;12.60;99.90
16732;DHT22;8484;50.904;9.192;2023-10-09T06:58:16;12.60;99.90
16732;DHT22;8484;50.904;9.192;2023-10-09T07:00:49;12.60;99.90
16732;DHT22;8484;50.904;9.192;2023-10-09T07:03:40;12.60;99.90
16732;DHT22;8484;50.904;9.192;2023-10-09T07:06:18;12.70;99.90
16732;DHT22;8484;50.904;9.192;2023-10-09T07:08:50;12.70;99.90
16732;DHT22;8484;50.904;9.192;2023-10-09T07:11:41;12.70;99.90
16732;DHT22;8484;50.904;9.192;2023-10-09T07:14:24;12.80;99.90
16732;DHT22;8484;50.904;9.192;2023-10-09T07:17:10;12.90;99.90
16732;DHT22;8484;50.904;9.192;2023-10-09T07:19:47;13.00;99.90
16732;DHT22;8484;50.904;9.192;2023-10-09T07:22:37;13.00;99.90
16732;DHT22;8484;50.904;9.192;2023-10-09T07:25:19;13.00;99.90
16732;DHT22;8484;50.904;9.192;2023-10-09T07:28:06;13.00;99.90
16732;DHT22;8484;50.904;9.192;2023-10-09T07:30:44;13.20;99.90
16732;DHT22;8484;50.904;9.192;2023-10-09T07:33:13;13.20;99.90
16732;DHT22;8484;50.904;9.192;2023-10-09T07:35:56;13.10;99.90
16732;DHT22;8484;50.904;9.192;2023-10-09T07:38:25;13.10;99.90
16732;DHT22;8484;50.904;9.192;2023-10-09T07:40:56;13.10;99.90
16732;DHT22;8484;50.904;9.192;2023-10-09T07:43:28;13.10;99.90
16732;DHT22;8484;50.904;9.192;2023-10-09T07:46:02;13.10;99.90
16732;DHT22;8484;50.904;9.192;2023-10-09T07:48:48;13.20;99.90
16732;DHT22;8484;50.904;9.192;2023-10-09T07:51:18;13.20;99.90
16732;DHT22;8484;50.904;9.192;2023-10-09T07:53:49;13.30;99.90
16732;DHT22;8484;50.904;9.192;2023-10-09T07:56:22;13.20;99.90
16732;DHT22;8484;50.904;9.192;2023-10-09T07:58:50;13.20;99.90
16732;DHT22;8484;50.904;9.192;2023-10-09T08:01:17;13.50;99.90
16732;DHT22;8484;50.904;9.192;2023-10-09T08:03:50;13.80;99.90
16732;DHT22;8484;50.904;9.192;2023-10-09T08:06:36;14.10;99.90
16732;DHT22;8484;50.904;9.192;2023-10-09T08:09:08;14.60;99.90
16732;DHT22;8484;50.904;9.192;2023-10-09T08:11:53;14.50;99.90
16732;DHT22;8484;50.904;9.192;2023-10-09T08:14:37;14.60;99.90
16732;DHT22;8484;50.904;9.192;2023-10-09T08:17:11;14.90;99.90
16732;DHT22;8484;50.904;9.192;2023-10-09T08:19:41;14.80;99.90
16732;DHT22;8484;50.904;9.192;2023-10-09T08:22:21;14.80;99.90
16732;DHT22;8484;50.904;9.192;2023-10-09T08:25:06;14.70;99.90
16732;DHT22;8484;50.904;9.192;2023-10-09T08:27:33;14.60;99.90
16732;DHT22;8484;50.904;9.192;2023-10-09T08:30:16;14.50;99.90
16732;DHT22;8484;50.904;9.192;2023-10-09T08:32:54;14.40;99.90
16732;DHT22;8484;50.904;9.192;2023-10-09T08:35:28;14.40;99.90
16732;DHT22;8484;50.904;9.192;2023-10-09T08:37:56;14.50;99.90
16732;DHT22;8484;50.904;9.192;2023-10-09T08:40:32;14.60;99.90
16732;DHT22;8484;50.904;9.192;2023-10-09T08:43:08;14.60;99.90
16732;DHT22;8484;50.904;9.192;2023-10-09T08:45:37;14.40;99.90
16732;DHT22;8484;50.904;9.192;2023-10-09T08:48:05;14.30;99.90
16732;DHT22;8484;50.904;9.192;2023-10-09T08:50:35;14.40;99.90
16732;DHT22;8484;50.904;9.192;2023-10-09T08:53:03;14.50;99.90
16732;DHT22;8484;50.904;9.192;2023-10-09T08:55:30;14.60;99.90
16732;DHT22;8484;50.904;9.192;2023-10-09T08:57:56;14.60;99.90
16732;DHT22;8484;50.904;9.192;2023-10-09T09:00:24;14.70;99.90
16732;DHT22;8484;50.904;9.192;2023-10-09T09:02:52;14.80;99.90
16732;DHT22;8484;50.904;9.192;2023-10-09T09:05:20;15.00;99.90
16732;DHT22;8484;50.904;9.192;2023-10-09T09:07:48;15.00;99.90
16732;DHT22;8484;50.904;9.192;2023-10-09T09:10:15;15.10;99.90
16732;DHT22;8484;50.904;9.192;2023-10-09T09:12:47;15.20;99.90
16732;DHT22;8484;50.904;9.192;2023-10-09T09:15:19;15.30;99.90
16732;DHT22;8484;50.904;9.192;2023-10-09T09:17:47;15.30;99.90
16732;DHT22;8484;50.904;9.192;2023-10-09T09:20:20;15.50;99.90
16732;DHT22;8484;50.904;9.192;2023-10-09T09:22:55;15.30;99.90
16732;DHT22;8484;50.904;9.192;2023-10-09T09:25:22;15.40;99.90
16732;DHT22;8484;50.904;9.192;2023-10-09T09:27:52;15.40;99.90
16732;DHT22;8484;50.904;9.192;2023-10-09T09:30:25;15.60;99.90
16732;DHT22;8484;50.904;9.192;2023-10-09T09:32:59;15.60;99.90
16732;DHT22;8484;50.904;9.192;2023-10-09T09:35:56;15.60;99.90
16732;DHT22;8484;50.904;9.192;2023-10-09T09:38:26;15.60;99.90
16732;DHT22;8484;50.904;9.192;2023-10-09T09:40:56;15.70;99.90
16732;DHT22;8484;50.904;9.192;2023-10-09T09:43:29;15.60;99.90
16732;DHT22;8484;50.904;9.192;2023-10-09T09:46:01;15.50;99.90
16732;DHT22;8484;50.904;9.192;2023-10-09T09:48:36;15.40;99.90
16732;DHT22;8484;50.904;9.192;2023-10-09T09:51:04;15.30;99.90
16732;DHT22;8484;50.904;9.192;2023-10-09T09:53:35;15.40;99.90
16732;DHT22;8484;50.904;9.192;2023-10-09T09:56:03;15.40;99.90
16732;DHT22;8484;50.904;9.192;2023-10-09T09:58:31;15.40;99.90
16732;DHT22;8484;50.904;9.192;2023-10-09T10:01:09;15.50;99.90
16732;DHT22;8484;50.904;9.192;2023-10-09T10:03:45;15.40;99.90
16732;DHT22;8484;50.904;9.192;2023-10-09T10:06:14;15.40;99.90
16732;DHT22;8484;50.904;9.192;2023-10-09T10:08:48;15.40;99.90
16732;DHT22;8484;50.904;9.192;2023-10-09T10:11:41;15.70;99.90
16732;DHT22;8484;50.904;9.192;2023-10-09T10:14:10;15.70;99.90
16732;DHT22;8484;50.904;9.192;2023-10-09T10:17:04;15.60;99.90
16732;DHT22;8484;50.904;9.192;2023-10-09T10:20:06;15.60;99.90
16732;DHT22;8484;50.904;9.192;2023-10-09T10:22:51;15.60;99.90
16732;DHT22;8484;50.904;9.192;2023-10-09T10:25:35;15.50;99.90
16732;DHT22;8484;50.904;9.192;2023-10-09T10:28:25;15.50;99.90
16732;DHT22;8484;50.904;9.192;2023-10-09T10:31:05;15.60;99.90
16732;DHT22;8484;50.904;9.192;2023-10-09T10:34:03;15.50;99.90
16732;DHT22;8484;50.904;9.192;2023-10-09T10:36:32;15.60;99.90
16732;DHT22;8484;50.904;9.192;2023-10-09T10:39:01;15.70;99.90
16732;DHT22;8484;50.904;9.192;2023-10-09T10:41:32;15.80;99.90
16732;DHT22;8484;50.904;9.192;2023-10-09T10:44:03;15.90;99.90
16732;DHT22;8484;50.904;9.192;2023-10-09T10:46:59;16.00;99.90
16732;DHT22;8484;50.904;9.192;2023-10-09T10:49:27;16.20;99.90
16732;DHT22;8484;50.904;9.192;2023-10-09T10:52:02;16.20;99.90
16732;DHT22;8484;50.904;9.192;2023-10-09T10:54:41;16.30;99.90
16732;DHT22;8484;50.904;9.192;2023-10-09T10:57:21;16.30;99.90
16732;DHT22;8484;50.904;9.192;2023-10-09T11:00:17;16.50;99.90
16732;DHT22;8484;50.904;9.192;2023-10-09T11:02:57;16.70;99.90
16732;DHT22;8484;50.904;9.192;2023-10-09T11:05:40;16.70;99.90
16732;DHT22;8484;50.904;9.192;2023-10-09T11:08:09;16.80;99.90
16732;DHT22;8484;50.904;9.192;2023-10-09T11:10:36;16.90;99.90
16732;DHT22;8484;50.904;9.192;2023-10-09T11:13:22;17.10;99.90
16732;DHT22;8484;50.904;9.192;2023-10-09T11:15:59;17.20;99.90
16732;DHT22;8484;50.904;9.192;2023-10-09T11:18:59;17.20;99.90
16732;DHT22;8484;50.904;9.192;2023-10-09T11:21:38;17.30;99.90
16732;DHT22;8484;50.904;9.192;2023-10-09T11:24:08;17.40;99.90
16732;DHT22;8484;50.904;9.192;2023-10-09T11:26:53;17.50;99.90
16732;DHT22;8484;50.904;9.192;2023-10-09T11:29:23;17.60;99.90
16732;DHT22;8484;50.904;9.192;2023-10-09T11:31:59;17.60;99.90
16732;DHT22;8484;50.904;9.192;2023-10-09T11:34:28;17.80;99.90
16732;DHT22;8484;50.904;9.192;2023-10-09T11:37:00;18.20;99.90
16732;DHT22;8484;50.904;9.192;2023-10-09T11:39:29;18.20;99.90
16732;DHT22;8484;50.904;9.192;2023-10-09T11:42:06;18.10;99.90
16732;DHT22;8484;50.904;9.192;2023-10-09T11:44:38;17.70;99.90
16732;DHT22;8484;50.904;9.192;2023-10-09T11:47:05;17.60;99.90
16732;DHT22;8484;50.904;9.192;2023-10-09T11:49:49;17.70;99.90
16732;DHT22;8484;50.904;9.192;2023-10-09T11:52:22;17.70;99.90
16732;DHT22;8484;50.904;9.192;2023-10-09T11:55:05;17.60;99.90
16732;DHT22;8484;50.904;9.192;2023-10-09T11:57:32;17.50;99.90
16732;DHT22;8484;50.904;9.192;2023-10-09T12:00:02;17.80;99.90
16732;DHT22;8484;50.904;9.192;2023-10-09T12:02:37;17.90;99.90
16732;DHT22;8484;50.904;9.192;2023-10-09T12:05:11;17.90;99.90
16732;DHT22;8484;50.904;9.192;2023-10-09T12:07:43;17.90;99.90
16732;DHT22;8484;50.904;9.192;2023-10-09T12:10:10;17.80;99.90
16732;DHT22;8484;50.904;9.192;2023-10-09T12:12:39;17.60;99.90
16732;DHT22;8484;50.904;9.192;2023-10-09T12:15:11;17.60;99.90
16732;DHT22;8484;50.904;9.192;2023-10-09T12:17:43;17.80;99.90
16732;DHT22;8484;50.904;9.192;2023-10-09T12:20:14;17.60;99.90
16732;DHT22;8484;50.904;9.192;2023-10-09T12:22:56;17.40;99.90
16732;DHT22;8484;50.904;9.192;2023-10-09T12:25:25;17.50;99.90
16732;DHT22;8484;50.904;9.192;2023-10-09T12:27:52;17.60;99.90
16732;DHT22;8484;50.904;9.192;2023-10-09T12:30:23;17.80;99.90
16732;DHT22;8484;50.904;9.192;2023-10-09T12:32:53;17.70;99.90
16732;DHT22;8484;50.904;9.192;2023-10-09T12:35:22;17.60;99.90
16732;DHT22;8484;50.904;9.192;2023-10-09T12:37:51;17.70;99.90
16732;DHT22;8484;50.904;9.192;2023-10-09T12:40:17;17.90;99.90
16732;DHT22;8484;50.904;9.192;2023-10-09T12:42:51;17.90;99.90
16732;DHT22;8484;50.904;9.192;2023-10-09T12:45:23;17.80;99.90
16732;DHT22;8484;50.904;9.192;2023-10-09T12:47:53;17.80;99.90
16732;DHT22;8484;50.904;9.192;2023-10-09T12:50:23;17.80;99.90
16732;DHT22;8484;50.904;9.192;2023-10-09T12:52:54;17.90;99.90
16732;DHT22;8484;50.904;9.192;2023-10-09T12:55:21;17.70;99.90
16732;DHT22;8484;50.904;9.192;2023-10-09T12:57:59;17.60;99.90
16732;DHT22;8484;50.904;9.192;2023-10-09T13:00:32;17.80;99.90
16732;DHT22;8484;50.904;9.192;2023-10-09T13:03:04;17.80;99.90
16732;DHT22;8484;50.904;9.192;2023-10-09T13:05:45;18.00;99.90
16732;DHT22;8484;50.904;9.192;2023-10-09T13:08:19;18.00;99.90
16732;DHT22;8484;50.904;9.192;2023-10-09T13:10:50;18.10;99.90
16732;DHT22;8484;50.904;9.192;2023-10-09T13:13:27;18.00;99.90
16732;DHT22;8484;50.904;9.192;2023-10-09T13:16:08;18.00;99.90
16732;DHT22;8484;50.904;9.192;2023-10-09T13:18:38;18.20;99.90
16732;DHT22;8484;50.904;9.192;2023-10-09T13:21:06;18.00;99.90
16732;DHT22;8484;50.904;9.192;2023-10-09T13:23:33;18.10;99.90
16732;DHT22;8484;50.904;9.192;2023-10-09T13:26:06;18.00;99.90
16732;DHT22;8484;50.904;9.192;2023-10-09T13:28:45;18.00;99.90
16732;DHT22;8484;50.904;9.192;2023-10-09T13:31:12;18.00;99.90
16732;DHT22;8484;50.904;9.192;2023-10-09T13:33:40;18.20;99.90
16732;DHT22;8484;50.904;9.192;2023-10-09T13:36:09;18.30;99.90
16732;DHT22;8484;50.904;9.192;2023-10-09T13:38:43;18.10;99.90
16732;DHT22;8484;50.904;9.192;2023-10-09T13:41:10;18.00;99.90
16732;DHT22;8484;50.904;9.192;2023-10-09T13:43:40;18.00;99.90
16732;DHT22;8484;50.904;9.192;2023-10-09T13:46:08;17.90;99.90
16732;DHT22;8484;50.904;9.192;2023-10-09T13:48:37;18.00;99.90
16732;DHT22;8484;50.904;9.192;2023-10-09T13:51:08;18.10;99.90
16732;DHT22;8484;50.904;9.192;2023-10-09T13:53:40;17.90;99.90
16732;DHT22;8484;50.904;9.192;2023-10-09T13:56:12;18.00;99.90
16732;DHT22;8484;50.904;9.192;2023-10-09T13:58:44;17.90;99.90
16732;DHT22;8484;50.904;9.192;2023-10-09T14:01:11;18.00;99.90
16732;DHT22;8484;50.904;9.192;2023-10-09T14:03:47;18.00;99.90
16732;DHT22;8484;50.904;9.192;2023-10-09T14:06:17;18.00;99.90
16732;DHT22;8484;50.904;9.192;2023-10-09T14:08:56;17.90;99.90
16732;DHT22;8484;50.904;9.192;2023-10-09T14:11:23;17.90;99.90
16732;DHT22;8484;50.904;9.192;2023-10-09T14:13:50;18.00;99.90
16732;DHT22;8484;50.904;9.192;2023-10-09T14:16:17;18.10;99.90
16732;DHT22;8484;50.904;9.192;2023-10-09T14:18:53;18.20;99.90
16732;DHT22;8484;50.904;9.192;2023-10-09T14:21:24;18.10;99.90
16732;DHT22;8484;50.904;9.192;2023-10-09T14:23:53;18.10;99.90
16732;DHT22;8484;50.904;9.192;2023-10-09T14:26:26;18.20;99.90
16732;DHT22;8484;50.904;9.192;2023-10-09T14:28:53;18.00;99.90
16732;DHT22;8484;50.904;9.192;2023-10-09T14:31:23;18.10;99.90
16732;DHT22;8484;50.904;9.192;2023-10-09T14:33:54;18.20;99.90
16732;DHT22;8484;50.904;9.192;2023-10-09T14:36:21;18.20;99.90
16732;DHT22;8484;50.904;9.192;2023-10-09T14:38:51;18.30;99.90
16732;DHT22;8484;50.904;9.192;2023-10-09T14:41:20;18.30;99.90
16732;DHT22;8484;50.904;9.192;2023-10-09T14:43:49;18.30;99.90
16732;DHT22;8484;50.904;9.192;2023-10-09T14:46:16;18.30;99.90
16732;DHT22;8484;50.904;9.192;2023-10-09T14:48:49;18.30;99.90
16732;DHT22;8484;50.904;9.192;2023-10-09T14:51:19;18.40;99.90
16732;DHT22;8484;50.904;9.192;2023-10-09T14:53:54;18.40;99.90
16732;DHT22;8484;50.904;9.192;2023-10-09T14:56:24;18.40;99.90
16732;DHT22;8484;50.904;9.192;2023-10-09T14:58:55;18.40;99.90
16732;DHT22;8484;50.904;9.192;2023-10-09T15:01:24;18.40;99.90
16732;DHT22;8484;50.904;9.192;2023-10-09T15:03:57;18.40;99.90
16732;DHT22;8484;50.904;9.192;2023-10-09T15:06:25;18.20;99.90
16732;DHT22;8484;50.904;9.192;2023-10-09T15:08:55;18.10;99.90
16732;DHT22;8484;50.904;9.192;2023-10-09T15:11:22;18.10;99.90
16732;DHT22;8484;50.904;9.192;2023-10-09T15:13:50;18.10;99.90
16732;DHT22;8484;50.904;9.192;2023-10-09T15:16:18;18.10;99.90
16732;DHT22;8484;50.904;9.192;2023-10-09T15:18:47;18.10;99.90
16732;DHT22;8484;50.904;9.192;2023-10-09T15:21:18;18.10;99.90
16732;DHT22;8484;50.904;9.192;2023-10-09T15:23:48;18.00;99.90
16732;DHT22;8484;50.904;9.192;2023-10-09T15:26:18;18.00;99.90
16732;DHT22;8484;50.904;9.192;2023-10-09T15:28:45;18.00;99.90
16732;DHT22;8484;50.904;9.192;2023-10-09T15:31:12;18.00;99.90
16732;DHT22;8484;50.904;9.192;2023-10-09T15:33:42;17.90;99.90
16732;DHT22;8484;50.904;9.192;2023-10-09T15:36:11;17.90;99.90
16732;DHT22;8484;50.904;9.192;2023-10-09T15:38:37;17.90;99.90
16732;DHT22;8484;50.904;9.192;2023-10-09T15:41:04;17.80;99.90
16732;DHT22;8484;50.904;9.192;2023-10-09T15:43:35;17.80;99.90
16732;DHT22;8484;50.904;9.192;2023-10-09T15:46:04;17.80;99.90
16732;DHT22;8484;50.904;9.192;2023-10-09T15:48:37;17.80;99.90
16732;DHT22;8484;50.904;9.192;2023-10-09T15:51:09;17.70;99.90
16732;DHT22;8484;50.904;9.192;2023-10-09T15:53:37;17.70;99.90
16732;DHT22;8484;50.904;9.192;2023-10-09T15:56:04;17.70;99.90
16732;DHT22;8484;50.904;9.192;2023-10-09T15:58:34;17.70;99.90
16732;DHT22;8484;50.904;9.192;2023-10-09T16:01:01;17.70;99.90
16732;DHT22;8484;50.904;9.192;2023-10-09T16:03:28;17.60;99.90
16732;DHT22;8484;50.904;9.192;2023-10-09T16:05:57;17.60;99.90
16732;DHT22;8484;50.904;9.192;2023-10-09T16:08:25;17.60;99.90
16732;DHT22;8484;50.904;9.192;2023-10-09T16:10:52;17.60;99.90
16732;DHT22;8484;50.904;9.192;2023-10-09T16:13:19;17.60;99.90
16732;DHT22;8484;50.904;9.192;2023-10-09T16:15:48;17.50;99.90
16732;DHT22;8484;50.904;9.192;2023-10-09T16:18:15;17.50;99.90
16732;DHT22;8484;50.904;9.192;2023-10-09T16:20:42;17.40;99.90
16732;DHT22;8484;50.904;9.192;2023-10-09T16:23:08;17.40;99.90
16732;DHT22;8484;50.904;9.192;2023-10-09T16:25:38;17.40;99.90
16732;DHT22;8484;50.904;9.192;2023-10-09T16:28:05;17.40;99.90
16732;DHT22;8484;50.904;9.192;2023-10-09T16:30:34;17.40;99.90